Time;durP1;ratioP1;P1;durP2;ratioP2;P2;SDS_P1;SDS_P2;PMS_P1;PMS_P2;Temp;Humidity;BMP_temperature;BMP_pressure;BME280_temperature;BME280_humidity;BME280_pressure;Samples;Min_cycle;Max_cycle;Signal;HPM_P1;HPM_P2
2022/08/26 00:01:28;;;;;;;5.90;2.55;;;22.30;99.90;;;;;;5058618;28;20103;-71
2022/08/26 00:03:53;;;;;;;5.13;2.22;;;22.30;99.90;;;;;;5072662;28;20120;-71
2022/08/26 00:06:19;;;;;;;4.93;2.55;;;22.40;99.90;;;;;;5069396;28;20402;-71
2022/08/26 00:08:45;;;;;;;6.53;2.55;;;22.30;99.90;;;;;;5053880;28;20056;-71
2022/08/26 00:11:12;;;;;;;4.72;2.30;;;22.30;99.90;;;;;;5064008;28;20534;-70
2022/08/26 00:13:37;;;;;;;4.82;2.80;;;22.30;99.90;;;;;;5055754;28;20510;-70
2022/08/26 00:16:06;;;;;;;4.75;2.83;;;22.30;99.90;;;;;;5071871;28;20036;-71
2022/08/26 00:18:32;;;;;;;3.97;2.25;;;22.20;99.90;;;;;;5073253;28;20033;-71
2022/08/26 00:20:58;;;;;;;4.18;2.63;;;22.30;99.90;;;;;;5069186;28;20056;-71
2022/08/26 00:23:24;;;;;;;5.55;2.53;;;22.30;99.90;;;;;;5072640;28;20025;-71
2022/08/26 00:25:50;;;;;;;5.00;2.60;;;22.30;99.90;;;;;;5068633;28;20033;-71
2022/08/26 00:28:16;;;;;;;4.80;2.75;;;22.20;99.90;;;;;;5063969;28;20383;-71
2022/08/26 00:30:42;;;;;;;5.15;2.50;;;22.20;99.90;;;;;;5063457;28;20031;-71
2022/08/26 00:33:07;;;;;;;6.28;3.08;;;22.10;99.90;;;;;;5054395;28;20032;-71
2022/08/26 00:35:34;;;;;;;6.00;2.90;;;22.20;99.90;;;;;;5057288;28;20115;-71
2022/08/26 00:38:00;;;;;;;4.97;2.22;;;22.10;99.90;;;;;;5069214;28;20124;-71
2022/08/26 00:40:33;;;;;;;5.15;2.70;;;22.00;99.90;;;;;;5066976;28;20033;-71
2022/08/26 00:42:59;;;;;;;3.92;2.45;;;22.00;99.90;;;;;;5066964;28;20029;-71
2022/08/26 00:45:26;;;;;;;5.05;3.05;;;22.00;99.90;;;;;;5070685;28;20040;-71
2022/08/26 00:47:59;;;;;;;6.10;2.60;;;21.90;99.90;;;;;;5070773;28;20033;-71
2022/08/26 00:50:30;;;;;;;5.18;3.03;;;21.90;99.90;;;;;;5064295;28;20047;-71
2022/08/26 00:52:59;;;;;;;8.15;3.35;;;22.00;99.90;;;;;;5056239;28;20029;-71
2022/08/26 00:55:32;;;;;;;4.60;2.55;;;21.90;99.90;;;;;;5053134;28;20065;-71
2022/08/26 00:57:59;;;;;;;3.90;2.35;;;21.80;99.90;;;;;;5052588;28;20407;-71
2022/08/26 01:00:27;;;;;;;4.78;3.40;;;22.00;99.90;;;;;;5057609;28;20029;-71
2022/08/26 01:02:54;;;;;;;5.47;2.45;;;21.80;99.90;;;;;;5052946;28;20025;-71
2022/08/26 01:05:21;;;;;;;4.18;2.72;;;22.00;99.90;;;;;;5053921;28;20495;-71
2022/08/26 01:07:47;;;;;;;4.45;2.70;;;22.00;99.90;;;;;;5052345;28;20029;-71
2022/08/26 01:10:16;;;;;;;5.47;2.58;;;21.60;99.90;;;;;;5062121;28;20063;-71
2022/08/26 01:12:48;;;;;;;6.30;3.15;;;21.50;99.90;;;;;;5070430;28;20032;-71
2022/08/26 01:15:30;;;;;;;4.28;2.78;;;21.50;99.90;;;;;;5069674;28;20143;-71
2022/08/26 01:17:57;;;;;;;4.45;2.65;;;21.50;99.90;;;;;;5072060;28;20028;-71
2022/08/26 01:20:35;;;;;;;4.40;2.47;;;21.50;99.90;;;;;;5054846;28;20033;-71
2022/08/26 01:23:06;;;;;;;4.90;2.92;;;21.60;99.90;;;;;;5052255;28;20049;-71
2022/08/26 01:25:36;;;;;;;4.00;2.47;;;21.60;99.90;;;;;;5060392;28;20035;-71
2022/08/26 01:28:08;;;;;;;3.83;2.33;;;21.50;99.90;;;;;;5045446;28;20044;-71
2022/08/26 01:30:37;;;;;;;4.97;2.25;;;21.50;99.90;;;;;;5050044;28;21383;-71
2022/08/26 01:33:05;;;;;;;4.18;2.55;;;21.20;99.90;;;;;;5062927;28;20688;-71
2022/08/26 01:35:31;;;;;;;3.50;2.25;;;21.40;99.90;;;;;;5065385;28;20067;-71
2022/08/26 01:37:59;;;;;;;4.47;2.80;;;21.40;99.90;;;;;;5055690;28;20099;-71
2022/08/26 01:40:32;;;;;;;4.20;2.40;;;21.30;99.90;;;;;;5058246;28;20055;-71
2022/08/26 01:43:01;;;;;;;4.25;2.53;;;21.20;99.90;;;;;;5068205;28;20424;-71
2022/08/26 01:45:29;;;;;;;4.22;2.22;;;21.20;99.90;;;;;;5061343;28;20039;-71
2022/08/26 01:47:58;;;;;;;4.93;3.08;;;21.10;99.90;;;;;;5059864;28;20025;-71
2022/08/26 01:50:29;;;;;;;4.15;2.50;;;21.00;99.90;;;;;;5051215;28;20423;-71
2022/08/26 01:52:56;;;;;;;4.65;2.78;;;20.80;99.90;;;;;;5056342;28;20029;-71
2022/08/26 01:55:23;;;;;;;4.30;2.70;;;21.10;99.90;;;;;;5067327;28;20574;-71
2022/08/26 01:57:53;;;;;;;4.38;2.67;;;21.20;99.90;;;;;;5056151;28;20045;-71
2022/08/26 02:00:19;;;;;;;6.72;2.97;;;21.10;99.90;;;;;;5050667;28;20071;-71
2022/08/26 02:02:48;;;;;;;6.70;3.15;;;21.10;99.90;;;;;;5063518;28;20081;-71
2022/08/26 02:05:18;;;;;;;5.53;2.50;;;21.10;99.90;;;;;;5061854;28;20029;-71
2022/08/26 02:07:45;;;;;;;5.82;2.60;;;21.10;99.90;;;;;;5053852;28;20087;-71
2022/08/26 02:10:11;;;;;;;5.80;2.83;;;21.10;99.90;;;;;;5071198;28;20041;-71
2022/08/26 02:12:38;;;;;;;5.55;2.60;;;21.00;99.90;;;;;;5065523;28;20068;-71
2022/08/26 02:15:08;;;;;;;4.43;2.70;;;21.10;99.90;;;;;;5050944;28;20402;-71
2022/08/26 02:17:42;;;;;;;6.60;3.28;;;21.10;99.90;;;;;;5054869;28;20072;-71
2022/08/26 02:20:07;;;;;;;;;;;21.10;99.90;;;;;;5059406;28;20051;-71
2022/08/26 02:22:34;;;;;;;4.63;3.00;;;21.10;99.90;;;;;;5053006;28;20484;-71
2022/08/26 02:25:13;;;;;;;10.55;2.65;;;21.10;99.90;;;;;;5051508;28;20029;-71
2022/08/26 02:27:38;;;;;;;5.13;2.50;;;21.00;99.90;;;;;;5067211;28;20036;-71
2022/08/26 02:30:18;;;;;;;4.15;2.50;;;21.00;99.90;;;;;;5053399;28;20116;-71
2022/08/26 02:32:45;;;;;;;4.97;2.70;;;21.00;99.90;;;;;;5066582;28;20512;-71
2022/08/26 02:35:14;;;;;;;5.57;2.70;;;20.80;99.90;;;;;;5055083;28;20460;-71
2022/08/26 02:37:41;;;;;;;6.57;3.13;;;20.70;99.90;;;;;;5050089;28;20094;-70
2022/08/26 02:40:09;;;;;;;5.82;3.03;;;20.70;99.90;;;;;;5051176;28;20035;-71
2022/08/26 02:42:34;;;;;;;5.68;3.05;;;20.60;99.90;;;;;;5059424;28;20490;-71
2022/08/26 02:45:00;;;;;;;5.20;2.63;;;20.50;99.90;;;;;;5071112;28;20033;-71
2022/08/26 02:47:27;;;;;;;4.18;2.58;;;20.40;99.90;;;;;;5064692;28;20028;-71
2022/08/26 02:49:52;;;;;;;3.97;2.40;;;20.40;99.90;;;;;;5070701;28;20048;-71
2022/08/26 02:52:18;;;;;;;6.22;2.95;;;20.20;99.90;;;;;;5065156;28;20037;-71
2022/08/26 02:54:44;;;;;;;6.43;2.25;;;20.30;99.90;;;;;;5062846;28;20577;-71
2022/08/26 02:57:10;;;;;;;4.97;2.85;;;20.30;99.90;;;;;;5067133;28;20052;-71
2022/08/26 02:59:38;;;;;;;3.50;2.00;;;20.40;99.90;;;;;;5069450;28;20577;-71
2022/08/26 03:02:04;;;;;;;4.75;3.13;;;20.00;99.90;;;;;;5050599;28;20029;-69
2022/08/26 03:04:29;;;;;;;6.00;3.00;;;20.00;99.90;;;;;;5051395;28;20064;-69
2022/08/26 03:06:55;;;;;;;4.70;2.80;;;20.10;99.90;;;;;;5046694;28;20037;-69
2022/08/26 03:09:22;;;;;;;5.47;2.45;;;20.30;99.90;;;;;;5045237;28;20072;-70
2022/08/26 03:11:48;;;;;;;5.25;2.50;;;20.20;99.90;;;;;;5053967;28;20063;-69
2022/08/26 03:14:14;;;;;;;4.75;2.55;;;20.30;99.90;;;;;;5068944;28;20060;-69
2022/08/26 03:16:40;;;;;;;4.43;2.75;;;20.30;99.90;;;;;;5063509;28;20039;-69
2022/08/26 03:19:07;;;;;;;7.07;2.40;;;20.40;99.90;;;;;;5056653;28;20055;-70
2022/08/26 03:21:34;;;;;;;4.47;2.83;;;20.50;99.90;;;;;;5056753;28;20532;-69
2022/08/26 03:24:00;;;;;;;3.95;2.40;;;20.50;99.90;;;;;;5069917;28;20028;-69
2022/08/26 03:26:26;;;;;;;5.43;2.65;;;20.50;99.90;;;;;;5063308;28;20106;-69
2022/08/26 03:31:36;;;;;;;5.25;2.30;;;20.70;99.90;;;;;;5057016;28;20653;-69
2022/08/26 03:34:03;;;;;;;3.60;2.30;;;20.60;99.90;;;;;;5068686;28;20028;-69
2022/08/26 03:36:28;;;;;;;6.90;2.80;;;20.80;99.90;;;;;;5052999;28;20029;-69
2022/08/26 03:38:54;;;;;;;5.07;2.83;;;20.70;99.90;;;;;;5065560;28;20039;-69
2022/08/26 03:41:20;;;;;;;3.55;2.35;;;20.60;99.90;;;;;;5069315;28;20623;-69
2022/08/26 03:43:47;;;;;;;5.25;2.67;;;20.50;99.90;;;;;;5058383;28;20036;-70
2022/08/26 03:46:13;;;;;;;3.67;2.00;;;20.70;99.90;;;;;;5065218;28;20029;-69
2022/08/26 03:48:39;;;;;;;5.18;2.33;;;20.60;99.90;;;;;;5047301;28;20052;-69
2022/08/26 03:51:13;;;;;;;6.93;2.80;;;20.40;99.90;;;;;;5046850;28;20060;-70
2022/08/26 03:53:38;;;;;;;4.30;2.45;;;20.20;99.90;;;;;;5049917;28;20471;-69
2022/08/26 03:56:05;;;;;;;4.32;2.38;;;20.40;99.90;;;;;;5050550;28;20043;-69
2022/08/26 03:58:31;;;;;;;5.28;2.20;;;20.50;99.90;;;;;;5047683;28;20094;-69
2022/08/26 04:00:58;;;;;;;4.85;2.47;;;20.30;99.90;;;;;;5048961;28;20151;-69
2022/08/26 04:06:10;;;;;;;4.72;2.03;;;20.20;99.90;;;;;;5063749;28;20031;-69
2022/08/26 04:08:36;;;;;;;4.55;2.53;;;20.40;99.90;;;;;;5046468;28;20033;-69
2022/08/26 04:11:02;;;;;;;5.93;2.95;;;20.40;99.90;;;;;;5049509;28;20355;-69
2022/08/26 04:13:28;;;;;;;4.38;2.40;;;20.50;99.90;;;;;;5046622;28;20036;-69
2022/08/26 04:15:54;;;;;;;3.70;2.25;;;20.50;99.90;;;;;;5049407;28;20867;-69
2022/08/26 04:18:20;;;;;;;4.10;2.33;;;20.70;99.90;;;;;;5065303;28;20580;-69
2022/08/26 04:20:49;;;;;;;5.50;2.20;;;20.60;99.90;;;;;;5053406;28;20029;-69
2022/08/26 04:23:16;;;;;;;4.00;2.10;;;20.50;99.90;;;;;;5064454;28;20038;-69
2022/08/26 04:25:42;;;;;;;3.60;2.20;;;20.60;99.90;;;;;;5053026;28;20513;-69
2022/08/26 04:28:09;;;;;;;6.93;2.50;;;20.60;99.90;;;;;;5061920;28;20055;-69
2022/08/26 04:30:38;;;;;;;4.80;2.40;;;20.70;99.90;;;;;;5059549;28;20070;-69
2022/08/26 04:33:04;;;;;;;3.80;2.25;;;20.50;99.90;;;;;;5045746;28;20045;-69
2022/08/26 04:35:30;;;;;;;3.10;2.10;;;20.70;99.90;;;;;;5053192;28;20505;-69
2022/08/26 04:37:57;;;;;;;4.25;2.30;;;20.80;99.90;;;;;;5064396;28;20032;-69
2022/08/26 04:40:25;;;;;;;5.18;2.40;;;20.80;99.90;;;;;;5063046;28;20453;-69
2022/08/26 04:42:51;;;;;;;7.20;2.20;;;20.70;99.90;;;;;;5065043;28;20064;-69
2022/08/26 04:45:16;;;;;;;4.07;2.30;;;20.70;99.90;;;;;;5056768;28;20083;-69
2022/08/26 04:47:42;;;;;;;5.55;2.20;;;20.70;99.90;;;;;;5053660;28;20025;-69
2022/08/26 04:50:08;;;;;;;4.97;2.47;;;20.80;99.90;;;;;;5061874;28;20108;-69
2022/08/26 04:52:35;;;;;;;4.57;2.72;;;20.80;99.90;;;;;;5062921;28;20084;-69
2022/08/26 04:55:01;;;;;;;5.13;2.20;;;20.80;99.90;;;;;;5061190;28;20119;-70
2022/08/26 04:57:26;;;;;;;3.80;2.15;;;20.70;99.90;;;;;;5054474;28;20151;-69
2022/08/26 04:59:52;;;;;;;4.60;2.50;;;20.80;99.90;;;;;;5065488;28;20558;-69
2022/08/26 05:02:18;;;;;;;5.35;2.10;;;20.70;99.90;;;;;;5062717;28;20086;-69
2022/08/26 05:04:44;;;;;;;6.03;2.67;;;20.70;99.90;;;;;;5066551;28;20064;-69
2022/08/26 05:07:10;;;;;;;4.20;2.22;;;20.70;99.90;;;;;;5055822;28;20029;-69
2022/08/26 05:09:38;;;;;;;4.30;2.33;;;20.80;99.90;;;;;;5051768;28;20033;-69
2022/08/26 05:12:05;;;;;;;6.50;2.50;;;20.70;99.90;;;;;;5061621;28;20044;-69
2022/08/26 05:14:31;;;;;;;4.55;2.63;;;20.60;99.90;;;;;;5052234;28;20041;-69
2022/08/26 05:16:56;;;;;;;6.43;2.38;;;20.50;99.90;;;;;;5053434;28;20360;-69
2022/08/26 05:19:22;;;;;;;4.88;2.40;;;20.40;99.90;;;;;;5053556;28;20120;-69
2022/08/26 05:21:48;;;;;;;6.85;2.75;;;20.30;99.90;;;;;;5051258;28;20048;-69
2022/08/26 05:24:14;;;;;;;4.90;2.60;;;20.30;99.90;;;;;;5048449;28;20033;-69
2022/08/26 05:26:40;;;;;;;4.45;2.17;;;20.10;99.90;;;;;;5058112;28;20192;-69
2022/08/26 05:29:06;;;;;;;4.93;2.47;;;20.30;99.90;;;;;;5070933;28;20529;-69
2022/08/26 05:31:32;;;;;;;4.68;2.50;;;20.30;99.90;;;;;;5067450;28;20039;-69
2022/08/26 05:34:03;;;;;;;4.70;2.47;;;20.20;99.90;;;;;;5065102;28;20035;-69
2022/08/26 05:36:31;;;;;;;4.28;2.50;;;20.40;99.90;;;;;;5066807;28;20032;-69
2022/08/26 05:38:57;;;;;;;5.32;2.47;;;20.30;99.90;;;;;;5059141;28;20031;-71
2022/08/26 05:41:30;;;;;;;5.28;2.70;;;20.20;99.90;;;;;;5048851;28;20140;-71
2022/08/26 05:43:57;;;;;;;4.50;2.40;;;20.30;99.90;;;;;;5060596;28;20031;-71
2022/08/26 05:46:25;;;;;;;3.63;2.20;;;20.20;99.90;;;;;;5040670;28;20981;-71
2022/08/26 05:48:55;;;;;;;5.43;2.17;;;20.30;99.90;;;;;;5044313;28;20080;-71
2022/08/26 05:51:22;;;;;;;4.32;2.67;;;20.30;99.90;;;;;;5052262;28;20597;-71
2022/08/26 05:53:48;;;;;;;3.80;2.35;;;20.40;99.90;;;;;;5051251;28;20040;-71
2022/08/26 05:56:14;;;;;;;3.90;2.50;;;20.50;99.90;;;;;;5047803;28;20045;-71
2022/08/26 05:58:41;;;;;;;5.55;2.38;;;20.70;99.90;;;;;;5044462;28;20037;-71
2022/08/26 06:01:13;;;;;;;4.57;2.22;;;20.70;99.90;;;;;;5043824;28;20037;-71
2022/08/26 06:03:41;;;;;;;3.45;2.15;;;20.50;99.90;;;;;;5048014;28;20025;-72
2022/08/26 06:06:10;;;;;;;4.38;2.30;;;20.50;99.90;;;;;;5047334;28;20032;-71
2022/08/26 06:08:36;;;;;;;7.28;2.05;;;20.50;99.90;;;;;;5049519;28;20815;-71
2022/08/26 06:11:05;;;;;;;5.30;2.38;;;20.60;99.90;;;;;;5048195;28;20418;-71
2022/08/26 06:13:32;;;;;;;5.70;2.83;;;20.60;99.90;;;;;;5062411;28;20031;-71
2022/08/26 06:16:01;;;;;;;3.72;2.10;;;20.60;99.90;;;;;;5044798;28;20045;-71
2022/08/26 06:18:35;;;;;;;5.05;2.90;;;20.60;99.90;;;;;;5047474;28;20605;-71
2022/08/26 06:21:15;;;;;;;5.67;2.47;;;20.70;99.90;;;;;;5054777;28;20083;-71
2022/08/26 06:26:27;;;;;;;6.22;2.47;;;20.80;99.90;;;;;;5048066;28;20055;-71
2022/08/26 06:28:54;;;;;;;5.78;2.47;;;21.00;99.90;;;;;;5043746;28;20041;-71
2022/08/26 06:31:20;;;;;;;4.60;2.40;;;21.00;99.90;;;;;;5052936;28;20079;-71
2022/08/26 06:33:46;;;;;;;4.78;2.67;;;21.10;99.90;;;;;;5064215;28;20032;-71
2022/08/26 06:36:20;;;;;;;4.07;2.13;;;21.20;99.90;;;;;;5060388;28;20050;-71
2022/08/26 06:38:47;;;;;;;4.60;2.30;;;21.40;99.90;;;;;;5067652;28;20047;-70
2022/08/26 06:41:13;;;;;;;7.35;2.20;;;21.60;99.90;;;;;;5066148;28;20040;-70
2022/08/26 06:43:39;;;;;;;8.60;2.38;;;21.80;99.90;;;;;;5067589;28;20036;-71
2022/08/26 06:46:09;;;;;;;4.22;2.47;;;22.00;99.90;;;;;;5066652;28;20029;-72
2022/08/26 06:48:35;;;;;;;4.55;2.08;;;22.30;99.90;;;;;;5064508;28;20036;-71
2022/08/26 06:51:06;;;;;;;3.97;2.60;;;23.40;99.90;;;;;;5041642;28;20425;-72
2022/08/26 06:53:32;;;;;;;7.25;2.60;;;24.70;98.60;;;;;;5056044;28;20051;-71
2022/08/26 06:55:58;;;;;;;4.40;2.08;;;26.10;96.80;;;;;;5063337;28;20036;-72
2022/08/26 06:58:23;;;;;;;5.22;2.22;;;27.10;95.50;;;;;;5049645;28;20124;-71
2022/08/26 07:00:49;;;;;;;3.85;2.22;;;28.20;94.20;;;;;;5051827;28;20442;-71
2022/08/26 07:03:15;;;;;;;4.30;2.70;;;28.90;93.10;;;;;;5052530;28;20467;-72
2022/08/26 07:05:40;;;;;;;4.07;2.40;;;28.60;92.70;;;;;;5050137;28;20020;-71
2022/08/26 07:08:06;;;;;;;3.38;1.95;;;29.20;91.70;;;;;;5056827;28;20278;-72
2022/08/26 07:10:32;;;;;;;5.65;2.00;;;29.80;90.50;;;;;;5058202;28;20566;-71
2022/08/26 07:12:57;;;;;;;5.68;2.10;;;29.90;90.40;;;;;;5056296;28;20060;-72
2022/08/26 07:15:23;;;;;;;4.28;2.50;;;30.90;90.20;;;;;;5058473;28;20075;-71
2022/08/26 07:17:48;;;;;;;7.55;2.33;;;31.10;90.10;;;;;;5065577;28;20056;-72
2022/08/26 07:20:14;;;;;;;5.05;2.25;;;31.40;88.50;;;;;;5067495;28;20033;-72
2022/08/26 07:22:40;;;;;;;4.18;2.00;;;31.10;87.30;;;;;;5057412;28;20021;-71
2022/08/26 07:25:07;;;;;;;4.45;2.60;;;31.60;87.10;;;;;;5054549;28;20035;-72
2022/08/26 07:27:35;;;;;;;3.78;2.13;;;31.40;87.00;;;;;;5052870;28;20082;-71
2022/08/26 07:30:01;;;;;;;4.45;1.85;;;31.40;87.90;;;;;;5066060;28;20036;-72
2022/08/26 07:32:26;;;;;;;3.60;2.13;;;30.60;88.20;;;;;;5050928;28;20120;-73
2022/08/26 07:34:52;;;;;;;6.32;2.58;;;30.10;89.30;;;;;;5054937;28;20120;-72
2022/08/26 07:37:18;;;;;;;4.53;1.90;;;27.50;91.40;;;;;;5047045;28;20100;-72
2022/08/26 07:39:44;;;;;;;6.97;3.05;;;25.60;93.40;;;;;;5047217;28;20029;-72
2022/08/26 07:42:12;;;;;;;5.15;2.95;;;24.70;95.20;;;;;;5050668;28;20021;-72
2022/08/26 07:44:39;;;;;;;4.70;2.53;;;24.00;96.10;;;;;;5067432;28;20115;-72
2022/08/26 07:47:05;;;;;;;3.85;2.25;;;23.70;96.70;;;;;;5067465;28;20036;-74
2022/08/26 07:49:31;;;;;;;4.57;2.38;;;23.60;97.10;;;;;;5065111;28;20036;-74
2022/08/26 07:51:57;;;;;;;4.13;2.42;;;23.70;96.80;;;;;;5047494;28;20051;-74
2022/08/26 07:54:23;;;;;;;4.65;2.58;;;23.60;97.30;;;;;;5047097;28;20036;-74
2022/08/26 07:56:48;;;;;;;6.05;2.75;;;23.50;97.50;;;;;;5054341;28;20041;-74
2022/08/26 07:59:16;;;;;;;3.38;2.35;;;23.40;97.50;;;;;;5061767;28;20476;-73
2022/08/26 08:01:42;;;;;;;4.85;2.47;;;23.50;97.40;;;;;;5054778;28;20036;-74
2022/08/26 08:04:08;;;;;;;3.75;2.10;;;23.60;97.80;;;;;;5066717;28;20135;-74
2022/08/26 08:06:33;;;;;;;8.68;3.00;;;23.80;97.50;;;;;;5065871;28;20044;-73
2022/08/26 08:08:59;;;;;;;4.50;2.60;;;23.80;96.90;;;;;;5065590;28;20032;-74
2022/08/26 08:11:28;;;;;;;6.85;3.03;;;23.70;96.90;;;;;;5065092;28;20041;-74
2022/08/26 08:13:54;;;;;;;5.18;2.70;;;23.70;97.40;;;;;;5065851;28;20032;-74
2022/08/26 08:16:20;;;;;;;5.45;3.00;;;23.70;97.10;;;;;;5049743;28;20116;-75
2022/08/26 08:18:46;;;;;;;5.32;3.03;;;23.70;97.40;;;;;;5046800;28;20029;-75
2022/08/26 08:21:11;;;;;;;5.20;2.67;;;23.90;97.30;;;;;;5046959;28;20043;-74
2022/08/26 08:23:38;;;;;;;8.98;3.05;;;23.80;97.00;;;;;;5046778;28;20632;-74
2022/08/26 08:26:06;;;;;;;7.57;3.47;;;23.80;97.10;;;;;;5045513;28;20032;-73
2022/08/26 08:28:32;;;;;;;5.47;2.90;;;23.90;96.90;;;;;;5045415;28;20025;-73
2022/08/26 08:30:58;;;;;;;4.05;2.58;;;24.00;96.50;;;;;;5052458;28;20101;-74
2022/08/26 08:33:24;;;;;;;4.18;2.50;;;24.10;96.20;;;;;;5064087;28;20035;-74
2022/08/26 08:35:51;;;;;;;4.10;2.20;;;24.30;95.90;;;;;;5066701;28;20043;-74
2022/08/26 08:38:17;;;;;;;3.60;2.42;;;24.30;95.60;;;;;;5065952;28;20490;-74
2022/08/26 08:40:44;;;;;;;4.72;2.85;;;24.20;95.80;;;;;;5066444;28;20039;-73
2022/08/26 08:43:38;;;;;;;9.48;3.55;;;24.70;95.60;;;;;;5046648;28;20033;-74
2022/08/26 08:46:12;;;;;;;4.47;2.38;;;27.30;93.80;;;;;;5042137;28;20462;-74
2022/08/26 08:48:42;;;;;;;5.38;2.88;;;29.20;92.00;;;;;;5066048;28;20055;-75
2022/08/26 08:51:26;;;;;;;4.35;2.70;;;29.70;91.20;;;;;;5054654;28;20103;-74
2022/08/26 08:53:53;;;;;;;;;;;29.20;92.00;;;;;;5065059;28;20032;-74
2022/08/26 08:56:23;;;;;;;4.05;2.53;;;27.90;92.20;;;;;;5051940;28;19932;-74
2022/08/26 08:58:58;;;;;;;7.35;3.30;;;27.30;92.50;;;;;;5045940;28;20111;-75
2022/08/26 09:01:34;;;;;;;5.00;2.80;;;28.60;92.30;;;;;;5041981;28;20052;-75
2022/08/26 09:04:18;;;;;;;5.40;2.55;;;29.60;92.10;;;;;;5054846;28;20041;-75
2022/08/26 09:06:47;;;;;;;3.45;2.45;;;29.60;92.50;;;;;;5057341;28;20040;-74
2022/08/26 09:09:26;;;;;;;4.45;2.90;;;29.70;91.50;;;;;;5061787;28;20028;-76
2022/08/26 09:11:55;;;;;;;6.18;2.50;;;29.80;91.40;;;;;;5065456;28;20040;-76
2022/08/26 09:14:21;;;;;;;5.85;2.80;;;30.10;91.50;;;;;;5065555;28;20028;-75
2022/08/26 09:16:56;;;;;;;4.97;2.95;;;30.10;91.80;;;;;;5057861;28;20040;-74
2022/08/26 09:19:37;;;;;;;4.38;2.55;;;29.60;91.70;;;;;;5065040;28;20024;-75
2022/08/26 09:22:03;;;;;;;6.18;2.90;;;28.60;91.50;;;;;;5049211;28;20081;-76
2022/08/26 09:24:30;;;;;;;8.02;2.97;;;27.70;92.10;;;;;;5063916;28;20034;-76
2022/08/26 09:26:57;;;;;;;4.65;2.67;;;27.30;93.40;;;;;;5061576;28;20047;-76
2022/08/26 09:29:39;;;;;;;5.63;2.95;;;27.10;93.40;;;;;;5063987;28;20035;-76
2022/08/26 09:32:28;;;;;;;10.55;3.20;;;26.80;93.60;;;;;;5044903;28;20033;-76
2022/08/26 09:35:01;;;;;;;12.55;3.42;;;26.50;93.50;;;;;;5043528;28;20041;-76
2022/08/26 09:37:43;;;;;;;4.25;2.45;;;26.40;93.30;;;;;;5044690;28;20021;-75
2022/08/26 09:40:34;;;;;;;3.92;2.30;;;26.60;93.70;;;;;;5059824;28;20032;-76
2022/08/26 09:43:14;;;;;;;7.15;2.72;;;26.80;93.00;;;;;;5049289;28;20044;-76
2022/08/26 09:45:53;;;;;;;4.13;2.55;;;26.60;93.30;;;;;;5068308;28;20020;-75
2022/08/26 09:48:31;;;;;;;4.20;2.60;;;26.80;93.20;;;;;;5065425;28;20073;-73
2022/08/26 09:51:06;;;;;;;3.70;2.50;;;26.80;92.60;;;;;;5054728;28;20502;-73
2022/08/26 09:53:51;;;;;;;4.22;2.40;;;26.90;93.10;;;;;;5049095;28;20033;-73
2022/08/26 09:56:26;;;;;;;3.75;2.75;;;27.00;92.80;;;;;;5067369;28;20036;-74
2022/08/26 09:58:53;;;;;;;4.57;2.72;;;27.20;92.80;;;;;;5064970;28;20032;-73
2022/08/26 10:01:36;;;;;;;10.20;3.72;;;27.40;92.80;;;;;;5066896;28;20068;-73
2022/08/26 10:04:10;;;;;;;5.63;2.57;;;27.60;93.10;;;;;;5066252;28;20035;-73
2022/08/26 10:06:42;;;;;;;6.60;2.95;;;27.70;93.00;;;;;;5067556;28;20858;-73
2022/08/26 10:09:12;;;;;;;6.15;2.83;;;27.60;92.20;;;;;;5067412;28;20032;-73
2022/08/26 10:11:50;;;;;;;6.10;3.03;;;27.60;92.70;;;;;;5066981;28;20037;-73
2022/08/26 10:14:32;;;;;;;5.32;2.72;;;27.50;92.50;;;;;;5067070;28;20510;-74
2022/08/26 10:17:12;;;;;;;4.25;2.70;;;27.20;92.00;;;;;;5051048;28;20048;-73
2022/08/26 10:19:47;;;;;;;5.15;3.10;;;27.60;92.20;;;;;;5047194;28;20044;-73
2022/08/26 10:22:23;;;;;;;5.07;2.80;;;28.00;93.00;;;;;;5049182;28;20021;-73
2022/08/26 10:24:53;;;;;;;6.90;2.90;;;27.70;92.80;;;;;;5054791;28;20112;-74
2022/08/26 10:27:51;;;;;;;5.35;2.70;;;27.90;92.30;;;;;;5065888;28;20131;-73
2022/08/26 10:30:19;;;;;;;5.88;2.65;;;28.20;92.90;;;;;;5063221;28;20041;-73
2022/08/26 10:32:50;;;;;;;6.50;2.78;;;28.30;92.20;;;;;;5054229;28;20052;-73
2022/08/26 10:35:18;;;;;;;6.57;2.97;;;28.40;91.30;;;;;;5064637;28;20111;-74
2022/08/26 10:37:54;;;;;;;8.00;2.90;;;28.30;91.30;;;;;;5055076;28;20021;-74
2022/08/26 10:40:50;;;;;;;6.95;2.85;;;28.50;92.60;;;;;;5052531;28;20091;-74
2022/08/26 10:43:26;;;;;;;4.60;2.80;;;28.60;92.70;;;;;;5066638;28;20028;-74
2022/08/26 10:46:04;;;;;;;3.88;2.53;;;28.70;91.60;;;;;;5067033;28;20040;-74
2022/08/26 10:49:08;;;;;;;4.90;2.75;;;28.80;90.70;;;;;;5052948;28;20029;-74
2022/08/26 10:51:41;;;;;;;4.18;2.63;;;29.00;91.20;;;;;;5041002;28;20096;-73
2022/08/26 10:54:27;;;;;;;4.97;2.57;;;29.00;91.40;;;;;;5046868;28;20040;-74
2022/08/26 10:57:16;;;;;;;4.63;2.55;;;29.00;91.40;;;;;;5046523;28;20045;-74
2022/08/26 11:02:58;;;;;;;5.38;2.65;;;29.60;91.20;;;;;;5046945;28;20136;-73
2022/08/26 11:05:24;;;;;;;4.95;2.20;;;29.50;90.70;;;;;;5057117;28;20031;-74
2022/08/26 11:07:53;;;;;;;5.40;2.58;;;29.50;90.40;;;;;;5058836;28;20119;-74
2022/08/26 11:10:19;;;;;;;5.80;2.80;;;29.60;90.80;;;;;;5066512;28;20085;-73
2022/08/26 11:12:44;;;;;;;3.58;2.40;;;29.80;91.30;;;;;;5066350;28;20041;-74
2022/08/26 11:15:19;;;;;;;4.18;2.75;;;29.70;90.10;;;;;;5055454;28;20044;-73
2022/08/26 11:17:45;;;;;;;4.20;2.47;;;29.60;90.80;;;;;;5060312;28;20028;-73
2022/08/26 11:20:32;;;;;;;5.22;2.72;;;29.40;90.30;;;;;;5066393;28;20078;-74
2022/08/26 11:23:21;;;;;;;3.70;2.40;;;29.60;91.00;;;;;;5065545;28;20040;-74
2022/08/26 11:25:55;;;;;;;8.30;2.92;;;29.90;91.00;;;;;;5066931;28;20029;-74
2022/08/26 11:28:39;;;;;;;5.32;2.47;;;30.00;91.00;;;;;;5065967;28;20119;-74
2022/08/26 11:31:11;;;;;;;4.28;2.40;;;29.80;90.60;;;;;;5066241;28;20502;-73
2022/08/26 11:33:42;;;;;;;5.25;2.45;;;29.80;90.60;;;;;;5069085;28;20072;-73
2022/08/26 11:36:10;;;;;;;6.32;2.40;;;30.00;90.10;;;;;;5066457;28;20478;-74
2022/08/26 11:38:41;;;;;;;3.92;2.28;;;29.90;90.00;;;;;;5068801;28;20544;-73
2022/08/26 11:41:19;;;;;;;4.53;2.45;;;29.90;89.80;;;;;;5060774;28;20118;-73
2022/08/26 11:43:49;;;;;;;7.97;2.40;;;30.10;90.50;;;;;;5050775;28;20158;-72
2022/08/26 11:46:26;;;;;;;4.15;2.40;;;30.10;87.80;;;;;;5059879;28;20044;-73
2022/08/26 11:49:04;;;;;;;3.33;1.98;;;30.20;90.10;;;;;;5054379;28;20033;-72
2022/08/26 11:51:30;;;;;;;3.28;2.17;;;30.20;87.80;;;;;;5046853;28;20052;-72
2022/08/26 11:54:34;;;;;;;5.18;2.50;;;30.30;89.10;;;;;;5045968;28;20664;-73
2022/08/26 11:57:03;;;;;;;3.80;2.33;;;30.20;89.40;;;;;;5002911;28;20064;-73
2022/08/26 11:59:35;;;;;;;4.20;2.47;;;30.30;90.10;;;;;;5014042;28;20042;-72
2022/08/26 12:02:01;;;;;;;4.05;2.20;;;30.40;89.40;;;;;;5024323;28;20033;-72
2022/08/26 12:04:33;;;;;;;3.80;2.28;;;30.70;87.40;;;;;;5028751;28;20519;-73
2022/08/26 12:07:00;;;;;;;4.80;2.45;;;30.90;90.00;;;;;;5043314;28;20143;-72
2022/08/26 12:09:28;;;;;;;5.40;2.42;;;31.00;90.00;;;;;;5046836;28;20115;-72
2022/08/26 12:12:09;;;;;;;5.82;2.50;;;30.90;90.00;;;;;;5047869;28;20083;-71
2022/08/26 12:14:34;;;;;;;4.47;2.28;;;30.80;90.30;;;;;;5035945;28;20036;-72
2022/08/26 12:17:24;;;;;;;5.00;2.60;;;30.70;89.30;;;;;;5037937;28;20037;-72
2022/08/26 12:19:50;;;;;;;4.70;2.42;;;30.60;90.00;;;;;;5032729;28;20057;-71
2022/08/26 12:22:16;;;;;;;5.15;2.22;;;30.70;88.10;;;;;;5029550;28;20403;-70
2022/08/26 12:24:47;;;;;;;3.55;2.15;;;30.90;89.20;;;;;;5029122;28;20025;-71
2022/08/26 12:27:17;;;;;;;4.00;2.28;;;30.80;88.20;;;;;;5029633;28;20483;-71
2022/08/26 12:29:43;;;;;;;3.58;2.03;;;30.90;88.60;;;;;;5029094;28;20668;-72
2022/08/26 12:32:17;;;;;;;3.90;2.33;;;31.00;88.60;;;;;;5038686;28;20029;-71
2022/08/26 12:34:46;;;;;;;3.92;2.17;;;31.20;87.60;;;;;;5046620;28;20040;-71
2022/08/26 12:37:14;;;;;;;4.18;2.40;;;31.10;85.00;;;;;;5028842;28;20913;-71
2022/08/26 12:39:43;;;;;;;3.88;2.20;;;31.30;85.30;;;;;;5032064;28;20033;-71
2022/08/26 12:42:11;;;;;;;3.75;2.53;;;31.00;84.00;;;;;;5037359;28;20109;-71
2022/08/26 12:44:56;;;;;;;12.43;2.53;;;31.10;85.40;;;;;;5033758;28;20040;-71
2022/08/26 12:47:33;;;;;;;5.47;2.22;;;31.20;85.00;;;;;;5026554;28;20064;-70
2022/08/26 12:50:27;;;;;;;4.32;2.35;;;31.80;85.80;;;;;;5032964;28;20431;-71
2022/08/26 12:53:10;;;;;;;4.88;1.95;;;32.00;84.10;;;;;;5040029;28;20029;-72
2022/08/26 12:55:39;;;;;;;9.48;2.60;;;32.10;83.50;;;;;;5035553;28;20045;-71
2022/08/26 12:58:19;;;;;;;4.57;2.05;;;32.30;83.60;;;;;;5037810;28;20045;-73
2022/08/26 13:00:47;;;;;;;9.52;2.38;;;32.30;79.10;;;;;;5034508;28;20037;-71
2022/08/26 13:03:37;;;;;;;3.10;1.95;;;32.10;80.90;;;;;;5032592;28;20029;-72
2022/08/26 13:06:21;;;;;;;3.38;2.10;;;32.00;80.70;;;;;;5043035;28;20033;-72
2022/08/26 13:08:51;;;;;;;4.88;2.20;;;32.20;82.80;;;;;;5037210;28;20029;-71
2022/08/26 13:11:22;;;;;;;4.85;1.80;;;32.30;82.30;;;;;;5039061;28;20041;-71
2022/08/26 13:13:50;;;;;;;3.92;2.08;;;32.20;82.30;;;;;;5020992;28;20044;-71